sensor_id;sensor_type;location;lat;lon;timestamp;P1;durP1;ratioP1;P2;durP2;ratioP2
8159;SDS011;27404;52.398;9.646;2023-01-05T00:01:50;10.27;;;2.57;;
8159;SDS011;27404;52.398;9.646;2023-01-05T00:04:16;11.00;;;2.47;;
8159;SDS011;27404;52.398;9.646;2023-01-05T00:06:42;14.10;;;2.90;;
8159;SDS011;27404;52.398;9.646;2023-01-05T00:09:08;17.23;;;2.77;;
8159;SDS011;27404;52.398;9.646;2023-01-05T00:11:36;11.67;;;3.20;;
8159;SDS011;27404;52.398;9.646;2023-01-05T00:14:21;14.93;;;4.50;;
8159;SDS011;27404;52.398;9.646;2023-01-05T00:17:11;15.93;;;3.57;;
8159;SDS011;27404;52.398;9.646;2023-01-05T00:19:57;13.03;;;3.30;;
8159;SDS011;27404;52.398;9.646;2023-01-05T00:22:45;19.67;;;3.47;;
8159;SDS011;27404;52.398;9.646;2023-01-05T00:25:15;16.43;;;3.03;;
8159;SDS011;27404;52.398;9.646;2023-01-05T00:27:43;20.23;;;4.03;;
8159;SDS011;27404;52.398;9.646;2023-01-05T00:30:11;15.20;;;3.20;;
8159;SDS011;27404;52.398;9.646;2023-01-05T00:32:39;14.90;;;2.90;;
8159;SDS011;27404;52.398;9.646;2023-01-05T00:35:06;12.33;;;3.23;;
8159;SDS011;27404;52.398;9.646;2023-01-05T00:37:33;15.07;;;3.03;;
8159;SDS011;27404;52.398;9.646;2023-01-05T00:40:00;15.53;;;2.67;;
8159;SDS011;27404;52.398;9.646;2023-01-05T00:42:25;16.17;;;3.10;;
8159;SDS011;27404;52.398;9.646;2023-01-05T00:44:51;13.37;;;2.93;;
8159;SDS011;27404;52.398;9.646;2023-01-05T00:47:17;15.70;;;2.77;;
8159;SDS011;27404;52.398;9.646;2023-01-05T00:49:42;12.97;;;3.37;;
8159;SDS011;27404;52.398;9.646;2023-01-05T00:52:07;11.03;;;2.47;;
8159;SDS011;27404;52.398;9.646;2023-01-05T00:54:33;16.17;;;2.37;;
8159;SDS011;27404;52.398;9.646;2023-01-05T00:56:59;12.40;;;2.70;;
8159;SDS011;27404;52.398;9.646;2023-01-05T00:59:24;17.70;;;3.53;;
8159;SDS011;27404;52.398;9.646;2023-01-05T01:01:50;13.20;;;3.07;;
8159;SDS011;27404;52.398;9.646;2023-01-05T01:04:17;14.80;;;2.90;;
8159;SDS011;27404;52.398;9.646;2023-01-05T01:06:43;17.07;;;2.83;;
8159;SDS011;27404;52.398;9.646;2023-01-05T01:09:09;13.87;;;2.50;;
8159;SDS011;27404;52.398;9.646;2023-01-05T01:11:35;15.63;;;2.90;;
8159;SDS011;27404;52.398;9.646;2023-01-05T01:14:01;14.03;;;2.57;;
8159;SDS011;27404;52.398;9.646;2023-01-05T01:16:28;14.13;;;3.03;;
8159;SDS011;27404;52.398;9.646;2023-01-05T01:18:53;15.57;;;2.80;;
8159;SDS011;27404;52.398;9.646;2023-01-05T01:21:20;16.63;;;3.07;;
8159;SDS011;27404;52.398;9.646;2023-01-05T01:23:45;14.90;;;2.77;;
8159;SDS011;27404;52.398;9.646;2023-01-05T01:26:11;17.80;;;3.33;;
8159;SDS011;27404;52.398;9.646;2023-01-05T01:28:37;16.87;;;2.87;;
8159;SDS011;27404;52.398;9.646;2023-01-05T01:31:04;11.37;;;3.23;;
8159;SDS011;27404;52.398;9.646;2023-01-05T01:33:30;10.97;;;2.67;;
8159;SDS011;27404;52.398;9.646;2023-01-05T01:35:56;14.80;;;2.53;;
8159;SDS011;27404;52.398;9.646;2023-01-05T01:38:22;17.03;;;2.33;;
8159;SDS011;27404;52.398;9.646;2023-01-05T01:40:48;14.83;;;3.13;;
8159;SDS011;27404;52.398;9.646;2023-01-05T01:43:18;12.90;;;2.83;;
8159;SDS011;27404;52.398;9.646;2023-01-05T01:46:03;14.60;;;2.63;;
8159;SDS011;27404;52.398;9.646;2023-01-05T01:48:29;14.40;;;3.20;;
8159;SDS011;27404;52.398;9.646;2023-01-05T01:50:55;17.63;;;2.90;;
8159;SDS011;27404;52.398;9.646;2023-01-05T01:53:23;15.40;;;2.53;;
8159;SDS011;27404;52.398;9.646;2023-01-05T01:55:52;12.40;;;2.50;;
8159;SDS011;27404;52.398;9.646;2023-01-05T01:58:19;16.13;;;2.97;;
8159;SDS011;27404;52.398;9.646;2023-01-05T02:00:49;16.00;;;2.70;;
8159;SDS011;27404;52.398;9.646;2023-01-05T02:03:15;11.80;;;2.50;;
8159;SDS011;27404;52.398;9.646;2023-01-05T02:05:41;13.63;;;2.60;;
8159;SDS011;27404;52.398;9.646;2023-01-05T02:08:12;13.10;;;3.53;;
8159;SDS011;27404;52.398;9.646;2023-01-05T02:10:52;15.60;;;2.77;;
8159;SDS011;27404;52.398;9.646;2023-01-05T02:16:24;12.47;;;2.70;;
8159;SDS011;27404;52.398;9.646;2023-01-05T02:22:04;14.07;;;3.03;;
8159;SDS011;27404;52.398;9.646;2023-01-05T02:35:49;12.43;;;2.67;;
8159;SDS011;27404;52.398;9.646;2023-01-05T02:38:31;14.13;;;3.43;;
8159;SDS011;27404;52.398;9.646;2023-01-05T02:41:12;19.83;;;2.30;;
8159;SDS011;27404;52.398;9.646;2023-01-05T02:43:45;16.40;;;3.60;;
8159;SDS011;27404;52.398;9.646;2023-01-05T02:46:11;18.20;;;3.87;;
8159;SDS011;27404;52.398;9.646;2023-01-05T02:48:36;22.33;;;3.93;;
8159;SDS011;27404;52.398;9.646;2023-01-05T02:51:08;10.30;;;2.93;;
8159;SDS011;27404;52.398;9.646;2023-01-05T02:53:39;17.63;;;3.10;;
8159;SDS011;27404;52.398;9.646;2023-01-05T02:56:14;13.27;;;2.90;;
8159;SDS011;27404;52.398;9.646;2023-01-05T02:58:47;13.03;;;2.80;;
8159;SDS011;27404;52.398;9.646;2023-01-05T03:01:24;11.27;;;2.87;;
8159;SDS011;27404;52.398;9.646;2023-01-05T03:03:57;18.27;;;4.10;;
8159;SDS011;27404;52.398;9.646;2023-01-05T03:06:45;13.87;;;3.17;;
8159;SDS011;27404;52.398;9.646;2023-01-05T03:09:20;16.97;;;2.93;;
8159;SDS011;27404;52.398;9.646;2023-01-05T03:11:54;13.37;;;2.50;;
8159;SDS011;27404;52.398;9.646;2023-01-05T03:14:58;12.33;;;2.70;;
8159;SDS011;27404;52.398;9.646;2023-01-05T03:17:50;18.30;;;3.67;;
8159;SDS011;27404;52.398;9.646;2023-01-05T03:20:16;14.07;;;3.63;;
8159;SDS011;27404;52.398;9.646;2023-01-05T03:22:45;15.00;;;2.60;;
8159;SDS011;27404;52.398;9.646;2023-01-05T03:25:32;13.63;;;2.87;;
8159;SDS011;27404;52.398;9.646;2023-01-05T03:28:22;10.47;;;2.37;;
8159;SDS011;27404;52.398;9.646;2023-01-05T03:31:17;18.17;;;3.00;;
8159;SDS011;27404;52.398;9.646;2023-01-05T03:34:32;18.33;;;3.47;;
8159;SDS011;27404;52.398;9.646;2023-01-05T03:37:28;14.37;;;3.23;;
8159;SDS011;27404;52.398;9.646;2023-01-05T03:39:58;13.60;;;2.93;;
8159;SDS011;27404;52.398;9.646;2023-01-05T03:42:27;16.97;;;2.97;;
8159;SDS011;27404;52.398;9.646;2023-01-05T03:44:54;21.33;;;3.80;;
8159;SDS011;27404;52.398;9.646;2023-01-05T03:47:19;15.30;;;2.73;;
8159;SDS011;27404;52.398;9.646;2023-01-05T03:49:47;11.90;;;3.07;;
8159;SDS011;27404;52.398;9.646;2023-01-05T03:52:13;12.73;;;2.90;;
8159;SDS011;27404;52.398;9.646;2023-01-05T03:54:38;16.93;;;3.03;;
8159;SDS011;27404;52.398;9.646;2023-01-05T03:57:03;13.77;;;3.23;;
8159;SDS011;27404;52.398;9.646;2023-01-05T03:59:29;14.10;;;3.77;;
8159;SDS011;27404;52.398;9.646;2023-01-05T04:01:54;15.80;;;3.53;;
8159;SDS011;27404;52.398;9.646;2023-01-05T04:04:20;17.33;;;3.67;;
8159;SDS011;27404;52.398;9.646;2023-01-05T04:06:45;20.67;;;3.43;;
8159;SDS011;27404;52.398;9.646;2023-01-05T04:09:11;24.13;;;3.60;;
8159;SDS011;27404;52.398;9.646;2023-01-05T04:11:36;17.77;;;3.37;;
8159;SDS011;27404;52.398;9.646;2023-01-05T04:14:01;13.77;;;2.90;;
8159;SDS011;27404;52.398;9.646;2023-01-05T04:16:27;17.03;;;3.03;;
8159;SDS011;27404;52.398;9.646;2023-01-05T04:18:52;17.70;;;3.20;;
8159;SDS011;27404;52.398;9.646;2023-01-05T04:21:18;17.90;;;3.10;;
8159;SDS011;27404;52.398;9.646;2023-01-05T04:23:43;15.10;;;2.93;;
8159;SDS011;27404;52.398;9.646;2023-01-05T04:26:09;13.80;;;2.90;;
8159;SDS011;27404;52.398;9.646;2023-01-05T04:28:34;16.73;;;2.93;;
8159;SDS011;27404;52.398;9.646;2023-01-05T04:31:00;13.83;;;3.03;;
8159;SDS011;27404;52.398;9.646;2023-01-05T04:33:25;13.57;;;2.83;;
8159;SDS011;27404;52.398;9.646;2023-01-05T04:35:51;12.87;;;3.87;;
8159;SDS011;27404;52.398;9.646;2023-01-05T04:38:16;17.83;;;3.03;;
8159;SDS011;27404;52.398;9.646;2023-01-05T04:40:46;15.57;;;3.17;;
8159;SDS011;27404;52.398;9.646;2023-01-05T04:43:13;15.37;;;2.80;;
8159;SDS011;27404;52.398;9.646;2023-01-05T04:45:38;22.30;;;3.23;;
8159;SDS011;27404;52.398;9.646;2023-01-05T04:48:04;22.70;;;3.17;;
8159;SDS011;27404;52.398;9.646;2023-01-05T04:50:29;16.17;;;3.73;;
8159;SDS011;27404;52.398;9.646;2023-01-05T04:52:55;16.60;;;2.87;;
8159;SDS011;27404;52.398;9.646;2023-01-05T04:55:20;16.67;;;2.80;;
8159;SDS011;27404;52.398;9.646;2023-01-05T04:57:46;22.67;;;3.03;;
8159;SDS011;27404;52.398;9.646;2023-01-05T05:00:11;17.93;;;3.40;;
8159;SDS011;27404;52.398;9.646;2023-01-05T05:02:37;15.03;;;3.30;;
8159;SDS011;27404;52.398;9.646;2023-01-05T05:05:02;14.23;;;2.87;;
8159;SDS011;27404;52.398;9.646;2023-01-05T05:07:28;14.03;;;2.83;;
8159;SDS011;27404;52.398;9.646;2023-01-05T05:09:54;14.93;;;3.30;;
8159;SDS011;27404;52.398;9.646;2023-01-05T05:12:19;21.53;;;3.40;;
8159;SDS011;27404;52.398;9.646;2023-01-05T05:14:46;14.77;;;3.23;;
8159;SDS011;27404;52.398;9.646;2023-01-05T05:17:11;11.87;;;3.17;;
8159;SDS011;27404;52.398;9.646;2023-01-05T05:19:37;10.70;;;2.50;;
8159;SDS011;27404;52.398;9.646;2023-01-05T05:22:02;9.87;;;2.63;;
8159;SDS011;27404;52.398;9.646;2023-01-05T05:24:28;16.87;;;2.80;;
8159;SDS011;27404;52.398;9.646;2023-01-05T05:26:54;16.03;;;3.10;;
8159;SDS011;27404;52.398;9.646;2023-01-05T05:29:21;14.33;;;2.53;;
8159;SDS011;27404;52.398;9.646;2023-01-05T05:31:46;15.33;;;2.70;;
8159;SDS011;27404;52.398;9.646;2023-01-05T05:34:12;11.90;;;2.80;;
8159;SDS011;27404;52.398;9.646;2023-01-05T05:36:37;15.40;;;3.37;;
8159;SDS011;27404;52.398;9.646;2023-01-05T05:39:03;18.93;;;3.27;;
8159;SDS011;27404;52.398;9.646;2023-01-05T05:41:28;13.53;;;4.00;;
8159;SDS011;27404;52.398;9.646;2023-01-05T05:43:54;11.47;;;2.77;;
8159;SDS011;27404;52.398;9.646;2023-01-05T05:46:24;15.20;;;3.13;;
8159;SDS011;27404;52.398;9.646;2023-01-05T05:48:50;16.43;;;3.17;;
8159;SDS011;27404;52.398;9.646;2023-01-05T05:51:16;14.43;;;3.67;;
8159;SDS011;27404;52.398;9.646;2023-01-05T05:53:41;12.40;;;3.57;;
8159;SDS011;27404;52.398;9.646;2023-01-05T05:56:06;15.17;;;3.27;;
8159;SDS011;27404;52.398;9.646;2023-01-05T05:58:32;13.80;;;2.70;;
8159;SDS011;27404;52.398;9.646;2023-01-05T06:00:57;18.90;;;4.17;;
8159;SDS011;27404;52.398;9.646;2023-01-05T06:03:23;17.13;;;3.23;;
8159;SDS011;27404;52.398;9.646;2023-01-05T06:05:49;15.63;;;3.77;;
8159;SDS011;27404;52.398;9.646;2023-01-05T06:08:14;15.13;;;3.27;;
8159;SDS011;27404;52.398;9.646;2023-01-05T06:10:39;17.47;;;3.47;;
8159;SDS011;27404;52.398;9.646;2023-01-05T06:13:05;16.30;;;3.77;;
8159;SDS011;27404;52.398;9.646;2023-01-05T06:15:31;20.07;;;3.27;;
8159;SDS011;27404;52.398;9.646;2023-01-05T06:17:56;18.27;;;3.20;;
8159;SDS011;27404;52.398;9.646;2023-01-05T06:20:22;21.33;;;3.40;;
8159;SDS011;27404;52.398;9.646;2023-01-05T06:22:47;18.67;;;3.30;;
8159;SDS011;27404;52.398;9.646;2023-01-05T06:25:12;18.10;;;3.40;;
8159;SDS011;27404;52.398;9.646;2023-01-05T06:27:38;12.67;;;3.20;;
8159;SDS011;27404;52.398;9.646;2023-01-05T06:30:03;15.50;;;3.40;;
8159;SDS011;27404;52.398;9.646;2023-01-05T06:32:29;24.80;;;4.30;;
8159;SDS011;27404;52.398;9.646;2023-01-05T06:34:54;13.57;;;3.70;;
8159;SDS011;27404;52.398;9.646;2023-01-05T06:37:20;15.03;;;3.63;;
8159;SDS011;27404;52.398;9.646;2023-01-05T06:39:45;17.23;;;3.60;;
8159;SDS011;27404;52.398;9.646;2023-01-05T06:42:11;23.97;;;5.03;;
8159;SDS011;27404;52.398;9.646;2023-01-05T06:44:36;19.57;;;3.43;;
8159;SDS011;27404;52.398;9.646;2023-01-05T06:47:02;20.53;;;5.57;;
8159;SDS011;27404;52.398;9.646;2023-01-05T06:49:27;16.23;;;3.87;;
8159;SDS011;27404;52.398;9.646;2023-01-05T06:51:53;16.57;;;3.43;;
8159;SDS011;27404;52.398;9.646;2023-01-05T06:54:19;16.40;;;3.60;;
8159;SDS011;27404;52.398;9.646;2023-01-05T06:56:44;11.97;;;3.83;;
8159;SDS011;27404;52.398;9.646;2023-01-05T06:59:10;11.87;;;3.00;;
8159;SDS011;27404;52.398;9.646;2023-01-05T07:01:36;10.97;;;3.00;;
8159;SDS011;27404;52.398;9.646;2023-01-05T07:04:01;11.83;;;3.03;;
8159;SDS011;27404;52.398;9.646;2023-01-05T07:06:27;13.30;;;2.83;;
8159;SDS011;27404;52.398;9.646;2023-01-05T07:08:53;17.73;;;3.30;;
8159;SDS011;27404;52.398;9.646;2023-01-05T07:11:18;12.13;;;3.17;;
8159;SDS011;27404;52.398;9.646;2023-01-05T07:13:47;15.97;;;3.43;;
8159;SDS011;27404;52.398;9.646;2023-01-05T07:16:13;16.80;;;3.43;;
8159;SDS011;27404;52.398;9.646;2023-01-05T07:18:39;14.20;;;2.80;;
8159;SDS011;27404;52.398;9.646;2023-01-05T07:21:04;14.53;;;2.80;;
8159;SDS011;27404;52.398;9.646;2023-01-05T07:23:30;11.93;;;3.47;;
8159;SDS011;27404;52.398;9.646;2023-01-05T07:25:58;18.50;;;3.53;;
8159;SDS011;27404;52.398;9.646;2023-01-05T07:28:25;12.50;;;2.83;;
8159;SDS011;27404;52.398;9.646;2023-01-05T07:30:50;16.30;;;3.60;;
8159;SDS011;27404;52.398;9.646;2023-01-05T07:33:16;17.50;;;3.23;;
8159;SDS011;27404;52.398;9.646;2023-01-05T07:35:42;20.50;;;5.47;;
8159;SDS011;27404;52.398;9.646;2023-01-05T07:38:07;17.63;;;3.47;;
8159;SDS011;27404;52.398;9.646;2023-01-05T07:40:33;18.67;;;3.03;;
8159;SDS011;27404;52.398;9.646;2023-01-05T07:42:59;15.73;;;3.20;;
8159;SDS011;27404;52.398;9.646;2023-01-05T07:45:25;14.57;;;3.07;;
8159;SDS011;27404;52.398;9.646;2023-01-05T07:47:50;13.30;;;3.20;;
8159;SDS011;27404;52.398;9.646;2023-01-05T07:50:16;14.37;;;3.10;;
8159;SDS011;27404;52.398;9.646;2023-01-05T07:52:41;15.07;;;2.97;;
8159;SDS011;27404;52.398;9.646;2023-01-05T07:55:07;13.30;;;3.37;;
8159;SDS011;27404;52.398;9.646;2023-01-05T07:57:32;15.17;;;3.03;;
8159;SDS011;27404;52.398;9.646;2023-01-05T07:59:58;15.90;;;3.27;;
8159;SDS011;27404;52.398;9.646;2023-01-05T08:02:23;11.50;;;3.10;;
8159;SDS011;27404;52.398;9.646;2023-01-05T08:04:50;13.17;;;2.63;;
8159;SDS011;27404;52.398;9.646;2023-01-05T08:07:15;10.57;;;2.50;;
8159;SDS011;27404;52.398;9.646;2023-01-05T08:09:40;16.40;;;3.10;;
8159;SDS011;27404;52.398;9.646;2023-01-05T08:12:26;12.43;;;3.50;;
8159;SDS011;27404;52.398;9.646;2023-01-05T08:14:52;13.90;;;3.07;;
8159;SDS011;27404;52.398;9.646;2023-01-05T08:17:18;11.03;;;2.87;;
8159;SDS011;27404;52.398;9.646;2023-01-05T08:19:43;13.57;;;3.37;;
8159;SDS011;27404;52.398;9.646;2023-01-05T08:22:09;12.73;;;3.13;;
8159;SDS011;27404;52.398;9.646;2023-01-05T08:24:34;15.03;;;3.50;;
8159;SDS011;27404;52.398;9.646;2023-01-05T08:26:59;10.07;;;2.60;;
8159;SDS011;27404;52.398;9.646;2023-01-05T08:29:25;13.30;;;2.93;;
8159;SDS011;27404;52.398;9.646;2023-01-05T08:31:50;15.90;;;3.07;;
8159;SDS011;27404;52.398;9.646;2023-01-05T08:34:16;10.70;;;2.80;;
8159;SDS011;27404;52.398;9.646;2023-01-05T08:36:41;17.20;;;2.90;;
8159;SDS011;27404;52.398;9.646;2023-01-05T08:39:08;13.40;;;2.80;;
8159;SDS011;27404;52.398;9.646;2023-01-05T08:41:36;13.33;;;2.80;;
8159;SDS011;27404;52.398;9.646;2023-01-05T08:44:04;12.73;;;3.13;;
8159;SDS011;27404;52.398;9.646;2023-01-05T08:46:31;9.37;;;3.33;;
8159;SDS011;27404;52.398;9.646;2023-01-05T08:48:59;11.73;;;2.80;;
8159;SDS011;27404;52.398;9.646;2023-01-05T08:51:26;17.37;;;3.63;;
8159;SDS011;27404;52.398;9.646;2023-01-05T08:53:53;11.80;;;2.90;;
8159;SDS011;27404;52.398;9.646;2023-01-05T08:56:19;21.53;;;3.47;;
8159;SDS011;27404;52.398;9.646;2023-01-05T08:58:45;14.40;;;3.07;;
8159;SDS011;27404;52.398;9.646;2023-01-05T09:01:12;14.30;;;2.93;;
8159;SDS011;27404;52.398;9.646;2023-01-05T09:03:39;13.13;;;3.03;;
8159;SDS011;27404;52.398;9.646;2023-01-05T09:06:05;12.67;;;3.23;;
8159;SDS011;27404;52.398;9.646;2023-01-05T09:08:33;18.53;;;3.80;;
8159;SDS011;27404;52.398;9.646;2023-01-05T09:11:09;15.43;;;4.60;;
8159;SDS011;27404;52.398;9.646;2023-01-05T09:13:37;17.67;;;3.90;;
8159;SDS011;27404;52.398;9.646;2023-01-05T09:16:04;18.50;;;3.20;;
8159;SDS011;27404;52.398;9.646;2023-01-05T09:18:31;15.57;;;3.13;;
8159;SDS011;27404;52.398;9.646;2023-01-05T09:20:57;11.17;;;2.87;;
8159;SDS011;27404;52.398;9.646;2023-01-05T09:23:22;15.17;;;3.17;;
8159;SDS011;27404;52.398;9.646;2023-01-05T09:25:48;14.43;;;2.83;;
8159;SDS011;27404;52.398;9.646;2023-01-05T09:28:13;13.50;;;2.80;;
8159;SDS011;27404;52.398;9.646;2023-01-05T09:30:39;12.87;;;2.93;;
8159;SDS011;27404;52.398;9.646;2023-01-05T09:33:04;13.87;;;3.57;;
8159;SDS011;27404;52.398;9.646;2023-01-05T09:35:29;12.97;;;2.47;;
8159;SDS011;27404;52.398;9.646;2023-01-05T09:37:55;14.10;;;2.93;;
8159;SDS011;27404;52.398;9.646;2023-01-05T09:40:20;14.27;;;2.60;;
8159;SDS011;27404;52.398;9.646;2023-01-05T09:42:46;10.63;;;2.77;;
8159;SDS011;27404;52.398;9.646;2023-01-05T09:45:12;12.80;;;4.20;;
8159;SDS011;27404;52.398;9.646;2023-01-05T09:47:48;15.60;;;3.17;;
8159;SDS011;27404;52.398;9.646;2023-01-05T09:50:22;10.30;;;1.93;;
8159;SDS011;27404;52.398;9.646;2023-01-05T09:52:51;11.10;;;2.17;;
8159;SDS011;27404;52.398;9.646;2023-01-05T09:55:20;15.10;;;3.43;;
8159;SDS011;27404;52.398;9.646;2023-01-05T09:57:51;10.87;;;3.67;;
8159;SDS011;27404;52.398;9.646;2023-01-05T10:00:20;7.53;;;2.20;;
8159;SDS011;27404;52.398;9.646;2023-01-05T10:02:49;8.00;;;2.00;;
8159;SDS011;27404;52.398;9.646;2023-01-05T10:05:18;7.13;;;2.00;;
8159;SDS011;27404;52.398;9.646;2023-01-05T10:08:33;8.40;;;1.90;;
8159;SDS011;27404;52.398;9.646;2023-01-05T10:13:40;8.00;;;2.00;;
8159;SDS011;27404;52.398;9.646;2023-01-05T10:16:21;9.43;;;2.23;;
8159;SDS011;27404;52.398;9.646;2023-01-05T10:18:47;9.97;;;2.27;;
8159;SDS011;27404;52.398;9.646;2023-01-05T10:32:10;8.27;;;2.03;;
8159;SDS011;27404;52.398;9.646;2023-01-05T10:35:07;6.57;;;1.53;;
8159;SDS011;27404;52.398;9.646;2023-01-05T10:37:54;8.93;;;1.63;;
8159;SDS011;27404;52.398;9.646;2023-01-05T10:43:42;5.33;;;1.30;;
8159;SDS011;27404;52.398;9.646;2023-01-05T10:46:19;8.10;;;1.50;;
8159;SDS011;27404;52.398;9.646;2023-01-05T10:48:45;8.07;;;2.90;;
8159;SDS011;27404;52.398;9.646;2023-01-05T10:51:11;6.73;;;1.60;;
8159;SDS011;27404;52.398;9.646;2023-01-05T10:53:38;5.17;;;1.20;;
8159;SDS011;27404;52.398;9.646;2023-01-05T10:56:15;6.43;;;1.17;;
8159;SDS011;27404;52.398;9.646;2023-01-05T10:58:47;7.23;;;1.57;;
8159;SDS011;27404;52.398;9.646;2023-01-05T11:01:29;3.47;;;1.30;;
8159;SDS011;27404;52.398;9.646;2023-01-05T11:04:03;8.47;;;1.40;;
8159;SDS011;27404;52.398;9.646;2023-01-05T11:06:32;4.70;;;1.13;;
8159;SDS011;27404;52.398;9.646;2023-01-05T11:11:37;4.53;;;1.53;;
8159;SDS011;27404;52.398;9.646;2023-01-05T11:14:03;8.00;;;1.30;;
8159;SDS011;27404;52.398;9.646;2023-01-05T11:16:30;5.77;;;1.37;;
8159;SDS011;27404;52.398;9.646;2023-01-05T11:21:24;9.70;;;1.30;;
8159;SDS011;27404;52.398;9.646;2023-01-05T11:23:56;4.83;;;1.07;;
8159;SDS011;27404;52.398;9.646;2023-01-05T11:26:25;2.10;;;0.90;;
8159;SDS011;27404;52.398;9.646;2023-01-05T11:31:36;3.20;;;0.70;;
8159;SDS011;27404;52.398;9.646;2023-01-05T11:34:06;1.63;;;0.47;;
8159;SDS011;27404;52.398;9.646;2023-01-05T11:37:26;2.17;;;0.97;;
8159;SDS011;27404;52.398;9.646;2023-01-05T11:42:11;1.63;;;0.50;;
8159;SDS011;27404;52.398;9.646;2023-01-05T11:44:40;5.43;;;1.87;;
8159;SDS011;27404;52.398;9.646;2023-01-05T11:50:18;1.60;;;0.50;;
8159;SDS011;27404;52.398;9.646;2023-01-05T11:52:51;3.53;;;0.60;;
8159;SDS011;27404;52.398;9.646;2023-01-05T11:55:37;5.20;;;0.87;;
8159;SDS011;27404;52.398;9.646;2023-01-05T12:11:26;1.40;;;0.93;;
8159;SDS011;27404;52.398;9.646;2023-01-05T12:16:45;1.87;;;0.80;;
8159;SDS011;27404;52.398;9.646;2023-01-05T12:30:42;3.00;;;0.87;;
8159;SDS011;27404;52.398;9.646;2023-01-05T12:38:39;2.23;;;0.80;;
8159;SDS011;27404;52.398;9.646;2023-01-05T12:49:24;5.40;;;1.10;;
8159;SDS011;27404;52.398;9.646;2023-01-05T12:51:56;2.93;;;1.20;;
8159;SDS011;27404;52.398;9.646;2023-01-05T12:54:36;2.30;;;0.90;;
8159;SDS011;27404;52.398;9.646;2023-01-05T12:57:21;3.50;;;1.07;;
8159;SDS011;27404;52.398;9.646;2023-01-05T12:59:58;3.10;;;1.27;;
8159;SDS011;27404;52.398;9.646;2023-01-05T13:02:31;3.77;;;1.17;;
8159;SDS011;27404;52.398;9.646;2023-01-05T13:05:08;3.03;;;0.97;;
8159;SDS011;27404;52.398;9.646;2023-01-05T13:07:54;3.53;;;1.30;;
8159;SDS011;27404;52.398;9.646;2023-01-05T13:12:56;4.30;;;1.07;;
8159;SDS011;27404;52.398;9.646;2023-01-05T13:15:30;3.33;;;0.93;;
8159;SDS011;27404;52.398;9.646;2023-01-05T13:18:00;4.50;;;1.20;;
8159;SDS011;27404;52.398;9.646;2023-01-05T13:20:32;2.83;;;1.00;;
8159;SDS011;27404;52.398;9.646;2023-01-05T13:23:15;2.80;;;1.10;;
8159;SDS011;27404;52.398;9.646;2023-01-05T13:26:10;7.20;;;1.50;;
8159;SDS011;27404;52.398;9.646;2023-01-05T13:28:41;3.07;;;1.30;;
8159;SDS011;27404;52.398;9.646;2023-01-05T13:34:01;2.23;;;1.10;;
8159;SDS011;27404;52.398;9.646;2023-01-05T13:47:14;2.77;;;0.57;;
8159;SDS011;27404;52.398;9.646;2023-01-05T13:50:15;2.93;;;0.53;;
8159;SDS011;27404;52.398;9.646;2023-01-05T13:52:52;1.97;;;0.60;;
8159;SDS011;27404;52.398;9.646;2023-01-05T13:56:01;3.07;;;0.87;;
8159;SDS011;27404;52.398;9.646;2023-01-05T13:58:40;2.70;;;0.87;;
8159;SDS011;27404;52.398;9.646;2023-01-05T14:01:12;2.73;;;0.90;;
8159;SDS011;27404;52.398;9.646;2023-01-05T14:03:45;4.17;;;0.87;;
8159;SDS011;27404;52.398;9.646;2023-01-05T14:06:18;6.57;;;0.83;;
8159;SDS011;27404;52.398;9.646;2023-01-05T14:08:50;3.00;;;0.97;;
8159;SDS011;27404;52.398;9.646;2023-01-05T14:11:20;2.00;;;1.00;;
8159;SDS011;27404;52.398;9.646;2023-01-05T14:13:51;5.07;;;1.17;;
8159;SDS011;27404;52.398;9.646;2023-01-05T14:19:21;4.47;;;1.20;;
8159;SDS011;27404;52.398;9.646;2023-01-05T14:27:06;4.60;;;0.90;;
8159;SDS011;27404;52.398;9.646;2023-01-05T14:32:30;2.03;;;0.70;;
8159;SDS011;27404;52.398;9.646;2023-01-05T14:34:59;4.97;;;1.17;;
8159;SDS011;27404;52.398;9.646;2023-01-05T14:43:06;5.10;;;1.73;;
8159;SDS011;27404;52.398;9.646;2023-01-05T14:45:43;5.27;;;1.30;;
8159;SDS011;27404;52.398;9.646;2023-01-05T14:48:41;6.17;;;2.00;;
8159;SDS011;27404;52.398;9.646;2023-01-05T14:53:54;5.97;;;1.33;;
8159;SDS011;27404;52.398;9.646;2023-01-05T14:56:22;3.93;;;1.27;;
8159;SDS011;27404;52.398;9.646;2023-01-05T14:58:54;3.63;;;1.10;;
8159;SDS011;27404;52.398;9.646;2023-01-05T15:01:55;5.57;;;1.13;;
8159;SDS011;27404;52.398;9.646;2023-01-05T15:04:21;3.13;;;1.30;;
8159;SDS011;27404;52.398;9.646;2023-01-05T15:19:10;3.43;;;1.30;;
8159;SDS011;27404;52.398;9.646;2023-01-05T15:30:10;4.37;;;1.27;;
8159;SDS011;27404;52.398;9.646;2023-01-05T15:35:49;4.47;;;1.20;;
8159;SDS011;27404;52.398;9.646;2023-01-05T15:38:20;4.83;;;1.30;;
8159;SDS011;27404;52.398;9.646;2023-01-05T15:40:47;2.20;;;1.00;;
8159;SDS011;27404;52.398;9.646;2023-01-05T15:43:23;4.90;;;1.17;;
8159;SDS011;27404;52.398;9.646;2023-01-05T15:45:49;5.00;;;1.43;;
8159;SDS011;27404;52.398;9.646;2023-01-05T15:48:24;1.90;;;0.83;;
8159;SDS011;27404;52.398;9.646;2023-01-05T15:50:54;3.53;;;1.70;;
8159;SDS011;27404;52.398;9.646;2023-01-05T15:53:23;6.07;;;1.40;;
8159;SDS011;27404;52.398;9.646;2023-01-05T15:56:02;4.27;;;1.60;;
8159;SDS011;27404;52.398;9.646;2023-01-05T15:58:31;2.93;;;1.10;;
8159;SDS011;27404;52.398;9.646;2023-01-05T16:01:10;2.87;;;0.93;;
8159;SDS011;27404;52.398;9.646;2023-01-05T16:03:38;3.73;;;1.03;;
8159;SDS011;27404;52.398;9.646;2023-01-05T16:06:07;2.83;;;1.00;;
8159;SDS011;27404;52.398;9.646;2023-01-05T16:08:53;7.00;;;2.33;;
8159;SDS011;27404;52.398;9.646;2023-01-05T16:11:40;5.13;;;1.50;;
8159;SDS011;27404;52.398;9.646;2023-01-05T16:14:10;4.07;;;1.30;;
8159;SDS011;27404;52.398;9.646;2023-01-05T16:16:47;4.33;;;1.30;;
8159;SDS011;27404;52.398;9.646;2023-01-05T16:24:42;3.67;;;1.40;;
8159;SDS011;27404;52.398;9.646;2023-01-05T16:27:28;4.77;;;1.50;;
8159;SDS011;27404;52.398;9.646;2023-01-05T16:30:11;6.20;;;2.10;;
8159;SDS011;27404;52.398;9.646;2023-01-05T16:33:34;4.10;;;2.40;;
8159;SDS011;27404;52.398;9.646;2023-01-05T16:36:18;5.57;;;2.10;;
8159;SDS011;27404;52.398;9.646;2023-01-05T16:38:45;6.67;;;2.00;;
8159;SDS011;27404;52.398;9.646;2023-01-05T16:41:19;5.97;;;2.23;;
8159;SDS011;27404;52.398;9.646;2023-01-05T16:43:51;3.37;;;1.87;;
8159;SDS011;27404;52.398;9.646;2023-01-05T16:48:48;4.90;;;1.80;;
8159;SDS011;27404;52.398;9.646;2023-01-05T16:51:22;7.60;;;2.27;;
8159;SDS011;27404;52.398;9.646;2023-01-05T16:53:56;6.40;;;2.30;;
8159;SDS011;27404;52.398;9.646;2023-01-05T16:58:57;6.33;;;2.40;;
8159;SDS011;27404;52.398;9.646;2023-01-05T17:01:25;4.17;;;2.07;;
8159;SDS011;27404;52.398;9.646;2023-01-05T17:03:58;4.50;;;2.07;;
8159;SDS011;27404;52.398;9.646;2023-01-05T17:06:25;8.07;;;2.90;;
8159;SDS011;27404;52.398;9.646;2023-01-05T17:08:53;5.00;;;2.53;;
8159;SDS011;27404;52.398;9.646;2023-01-05T17:11:21;4.80;;;2.67;;
8159;SDS011;27404;52.398;9.646;2023-01-05T17:13:49;6.57;;;3.73;;
8159;SDS011;27404;52.398;9.646;2023-01-05T17:16:19;14.87;;;4.50;;
8159;SDS011;27404;52.398;9.646;2023-01-05T17:18:45;9.37;;;3.83;;
8159;SDS011;27404;52.398;9.646;2023-01-05T17:21:17;9.47;;;3.87;;
8159;SDS011;27404;52.398;9.646;2023-01-05T17:23:46;9.70;;;4.30;;
8159;SDS011;27404;52.398;9.646;2023-01-05T17:26:15;9.90;;;4.53;;
8159;SDS011;27404;52.398;9.646;2023-01-05T17:28:44;12.27;;;4.37;;
8159;SDS011;27404;52.398;9.646;2023-01-05T17:31:10;11.17;;;5.37;;
8159;SDS011;27404;52.398;9.646;2023-01-05T17:33:35;7.33;;;5.10;;
8159;SDS011;27404;52.398;9.646;2023-01-05T17:36:01;8.37;;;4.77;;
8159;SDS011;27404;52.398;9.646;2023-01-05T17:38:27;12.97;;;5.20;;
8159;SDS011;27404;52.398;9.646;2023-01-05T17:40:53;14.97;;;5.53;;
8159;SDS011;27404;52.398;9.646;2023-01-05T17:43:18;8.33;;;4.63;;
8159;SDS011;27404;52.398;9.646;2023-01-05T17:45:44;10.93;;;4.50;;
8159;SDS011;27404;52.398;9.646;2023-01-05T17:48:10;11.30;;;4.30;;
8159;SDS011;27404;52.398;9.646;2023-01-05T17:50:35;8.87;;;3.40;;